createdAt,value
2022-12-08T00:01:45.790Z,22.33
2022-12-08T00:04:13.567Z,19.90
2022-12-08T00:07:02.357Z,22.83
2022-12-08T00:09:39.026Z,21.17
2022-12-08T00:12:16.813Z,24.08
2022-12-08T00:14:46.966Z,22.97
2022-12-08T00:17:16.344Z,22.27
2022-12-08T00:19:46.249Z,18.10
2022-12-08T00:22:19.891Z,21.15
2022-12-08T00:24:48.021Z,20.33
2022-12-08T00:27:18.337Z,19.58
2022-12-08T00:29:47.070Z,20.40
2022-12-08T00:32:17.649Z,16.73
2022-12-08T00:34:46.725Z,19.97
2022-12-08T00:37:14.495Z,14.77
2022-12-08T00:39:46.199Z,18.83
2022-12-08T00:45:07.819Z,19.10
2022-12-08T00:47:35.827Z,19.70
2022-12-08T00:50:05.396Z,21.03
2022-12-08T00:52:35.228Z,20.77
2022-12-08T00:55:05.472Z,20.63
2022-12-08T00:57:35.657Z,21.77
2022-12-08T01:00:04.331Z,11.50
2022-12-08T01:02:34.702Z,18.70
2022-12-08T01:05:05.132Z,19.37
2022-12-08T01:07:38.535Z,17.17
2022-12-08T01:10:09.671Z,18.30
2022-12-08T01:12:41.693Z,23.03
2022-12-08T01:15:10.762Z,25.03
2022-12-08T01:17:39.488Z,22.17
2022-12-08T01:20:09.206Z,16.83
2022-12-08T01:22:37.873Z,21.50
2022-12-08T01:25:07.128Z,20.03
2022-12-08T01:27:37.254Z,20.83
2022-12-08T01:30:06.065Z,25.03
2022-12-08T01:32:34.335Z,27.50
2022-12-08T01:35:03.188Z,27.47
2022-12-08T01:37:32.539Z,21.07
2022-12-08T01:40:02.158Z,25.23
2022-12-08T01:42:32.554Z,25.50
2022-12-08T01:45:03.266Z,26.20
2022-12-08T01:47:37.208Z,25.13
2022-12-08T01:50:08.705Z,23.53
2022-12-08T01:52:47.000Z,22.57
2022-12-08T01:55:23.230Z,23.33
2022-12-08T01:57:59.767Z,24.87
2022-12-08T02:00:27.825Z,20.80
2022-12-08T02:03:06.890Z,25.03
2022-12-08T02:05:42.319Z,23.10
2022-12-08T02:08:14.994Z,25.90
2022-12-08T02:10:44.031Z,25.57
2022-12-08T02:13:17.727Z,25.93
2022-12-08T02:16:14.906Z,28.35
2022-12-08T02:19:29.587Z,29.20
2022-12-08T02:22:04.647Z,25.73
2022-12-08T02:24:32.565Z,23.00
2022-12-08T02:27:25.886Z,24.45
2022-12-08T02:30:17.913Z,23.97
2022-12-08T02:32:52.818Z,24.50
2022-12-08T02:35:20.795Z,24.37
2022-12-08T02:38:17.356Z,24.77
2022-12-08T02:41:16.968Z,24.50
2022-12-08T02:44:19.753Z,23.97
2022-12-08T02:47:15.182Z,22.57
2022-12-08T02:49:45.792Z,24.43
2022-12-08T02:52:13.974Z,26.70
2022-12-08T02:54:50.650Z,25.63
2022-12-08T02:57:30.911Z,25.88
2022-12-08T03:00:11.506Z,26.20
2022-12-08T03:03:14.970Z,28.57
2022-12-08T03:06:08.089Z,31.00
2022-12-08T03:09:10.257Z,31.20
2022-12-08T03:12:12.251Z,32.33
2022-12-08T03:14:47.923Z,26.80
2022-12-08T03:17:18.780Z,27.43
2022-12-08T03:19:49.528Z,27.13
2022-12-08T03:22:24.891Z,25.87
2022-12-08T03:24:56.188Z,27.57
2022-12-08T03:27:28.181Z,26.70
2022-12-08T03:30:00.727Z,27.57
2022-12-08T03:32:50.749Z,25.50
2022-12-08T03:35:26.926Z,27.30
2022-12-08T03:38:07.697Z,21.80
2022-12-08T03:40:35.412Z,23.27
2022-12-08T03:43:03.488Z,20.88
2022-12-08T03:45:31.316Z,25.37
2022-12-08T03:47:58.909Z,27.13
2022-12-08T03:50:26.879Z,25.60
2022-12-08T03:55:22.177Z,20.27
2022-12-08T03:57:49.816Z,20.58
2022-12-08T04:00:18.090Z,20.27
2022-12-08T04:02:45.778Z,24.00
2022-12-08T04:05:14.627Z,23.98
2022-12-08T04:07:42.539Z,23.17
2022-12-08T04:10:10.874Z,25.17
2022-12-08T04:12:38.908Z,24.93
2022-12-08T04:20:02.365Z,22.20
2022-12-08T04:22:30.614Z,25.93
2022-12-08T04:24:58.738Z,27.20
2022-12-08T04:27:26.534Z,24.20
2022-12-08T04:29:54.288Z,25.52
2022-12-08T04:32:21.954Z,23.98
2022-12-08T04:34:50.234Z,25.45
2022-12-08T04:37:17.757Z,27.07
2022-12-08T04:39:47.821Z,25.70
2022-12-08T04:42:16.757Z,25.80
2022-12-08T04:47:12.686Z,23.97
2022-12-08T04:52:08.014Z,23.33
2022-12-08T04:54:36.039Z,21.45
2022-12-08T04:59:31.701Z,25.98
2022-12-08T05:01:59.622Z,26.27
2022-12-08T05:06:54.942Z,23.77
2022-12-08T05:09:22.836Z,22.40
2022-12-08T05:11:50.695Z,22.83
2022-12-08T05:14:19.407Z,23.15
2022-12-08T05:16:47.896Z,23.43
2022-12-08T05:19:16.924Z,23.50
2022-12-08T05:21:45.645Z,23.37
2022-12-08T05:24:13.312Z,24.13
2022-12-08T05:26:41.435Z,25.02
2022-12-08T05:31:36.619Z,23.02
2022-12-08T05:34:04.405Z,25.10
2022-12-08T05:36:32.236Z,21.70
2022-12-08T05:38:59.840Z,21.40
2022-12-08T05:41:30.439Z,21.92
2022-12-08T05:43:58.091Z,19.97
2022-12-08T05:46:25.936Z,19.65
2022-12-08T05:51:23.879Z,23.88
2022-12-08T05:53:53.598Z,21.50
2022-12-08T05:56:21.587Z,20.43
2022-12-08T06:01:32.158Z,20.47
2022-12-08T06:04:02.153Z,20.53
2022-12-08T06:06:30.643Z,22.53
2022-12-08T06:08:58.496Z,22.20
2022-12-08T06:11:28.818Z,27.02
2022-12-08T06:13:57.637Z,20.37
2022-12-08T06:16:27.133Z,19.57
2022-12-08T06:18:55.934Z,21.57
2022-12-08T06:21:24.045Z,19.77
2022-12-08T06:23:54.008Z,19.87
2022-12-08T06:26:22.796Z,22.97
2022-12-08T06:28:51.151Z,24.43
2022-12-08T06:31:24.264Z,25.20
2022-12-08T06:33:53.850Z,23.60
2022-12-08T06:36:24.475Z,22.10
2022-12-08T06:38:53.372Z,18.23
2022-12-08T06:41:21.172Z,18.13
2022-12-08T06:43:49.239Z,20.67
2022-12-08T06:48:46.190Z,22.93
2022-12-08T06:51:17.103Z,22.35
2022-12-08T06:53:45.755Z,22.43
2022-12-08T06:56:14.600Z,20.80
2022-12-08T06:58:46.194Z,19.73
2022-12-08T07:01:18.233Z,21.00
2022-12-08T07:03:47.999Z,22.30
2022-12-08T07:06:19.448Z,20.73
2022-12-08T07:08:47.328Z,20.37
2022-12-08T07:11:20.909Z,20.52
2022-12-08T07:13:49.245Z,20.70
2022-12-08T07:18:44.582Z,19.55
2022-12-08T07:21:15.133Z,20.77
2022-12-08T07:23:45.791Z,20.40
2022-12-08T07:26:15.522Z,20.90
2022-12-08T07:28:44.787Z,22.03
2022-12-08T07:31:21.667Z,19.57
2022-12-08T07:33:50.488Z,19.85
2022-12-08T07:36:18.379Z,18.20
2022-12-08T07:41:16.071Z,21.37
2022-12-08T07:43:44.921Z,21.33
2022-12-08T07:46:18.158Z,21.60
2022-12-08T07:48:46.833Z,24.37
2022-12-08T07:51:15.723Z,22.93
2022-12-08T07:53:51.806Z,23.50
2022-12-08T07:56:21.449Z,23.88
2022-12-08T07:58:49.636Z,28.47
2022-12-08T08:01:31.579Z,26.73
2022-12-08T08:04:05.332Z,25.87
2022-12-08T08:06:34.994Z,25.80
2022-12-08T08:09:04.361Z,26.70
2022-12-08T08:11:32.117Z,27.27
2022-12-08T08:14:00.128Z,45.92
2022-12-08T08:16:32.127Z,33.83
2022-12-08T08:19:03.240Z,27.67
2022-12-08T08:21:47.186Z,26.57
2022-12-08T08:24:14.939Z,29.17
2022-12-08T08:26:42.577Z,28.45
2022-12-08T08:29:10.526Z,31.70
2022-12-08T08:31:38.240Z,28.33
2022-12-08T08:36:34.530Z,21.50
2022-12-08T08:39:03.469Z,25.10
2022-12-08T08:41:31.280Z,23.53
2022-12-08T08:44:00.196Z,23.50
2022-12-08T08:46:28.300Z,25.53
2022-12-08T08:51:24.071Z,28.90
2022-12-08T08:53:52.432Z,28.45
2022-12-08T08:56:21.292Z,28.70
2022-12-08T08:58:49.797Z,32.60
2022-12-08T09:01:21.159Z,33.03
2022-12-08T09:03:49.611Z,35.70
2022-12-08T09:06:18.293Z,29.43
2022-12-08T09:08:46.709Z,29.13
2022-12-08T09:11:15.187Z,31.30
2022-12-08T09:13:43.032Z,32.83
2022-12-08T09:16:12.840Z,42.08
2022-12-08T09:18:42.055Z,33.50
2022-12-08T09:21:16.596Z,33.70
2022-12-08T09:23:45.014Z,34.50
2022-12-08T09:26:13.055Z,33.60
2022-12-08T09:28:46.664Z,33.50
2022-12-08T09:31:16.205Z,32.33
2022-12-08T09:33:44.362Z,34.97
2022-12-08T09:36:13.608Z,34.93
2022-12-08T09:38:41.419Z,31.60
2022-12-08T09:41:43.307Z,32.43
2022-12-08T09:44:36.074Z,34.50
2022-12-08T09:47:23.584Z,36.00
2022-12-08T09:50:12.989Z,37.10
2022-12-08T09:52:58.063Z,34.83
2022-12-08T09:55:42.152Z,36.57
2022-12-08T09:59:04.257Z,35.10
2022-12-08T10:01:43.531Z,36.37
2022-12-08T10:04:32.623Z,34.63
2022-12-08T10:07:40.455Z,36.40
2022-12-08T10:10:32.338Z,35.07
2022-12-08T10:13:11.733Z,38.27
2022-12-08T10:15:51.397Z,42.73
2022-12-08T10:18:33.662Z,38.17
2022-12-08T10:21:18.512Z,34.90
2022-12-08T10:23:54.171Z,35.60
2022-12-08T10:26:22.758Z,36.57
2022-12-08T10:28:51.255Z,37.03
2022-12-08T10:31:25.208Z,35.83
2022-12-08T10:34:21.985Z,37.13
2022-12-08T10:36:59.485Z,38.27
2022-12-08T10:39:45.939Z,37.30
2022-12-08T10:42:22.610Z,37.00
2022-12-08T10:47:45.060Z,37.63
2022-12-08T10:50:23.470Z,39.13
2022-12-08T10:53:14.663Z,37.42
2022-12-08T10:55:44.716Z,36.10
2022-12-08T10:58:37.402Z,41.53
2022-12-08T11:01:20.529Z,32.93
2022-12-08T11:03:54.895Z,29.73
2022-12-08T11:06:43.073Z,28.83
2022-12-08T11:09:17.015Z,29.20
2022-12-08T11:11:49.441Z,23.67
2022-12-08T11:14:39.922Z,18.40
2022-12-08T11:17:22.277Z,16.80
2022-12-08T11:19:59.011Z,8.70
2022-12-08T11:22:40.078Z,10.93
2022-12-08T11:25:08.364Z,9.57
2022-12-08T11:27:39.064Z,7.30
2022-12-08T11:30:38.497Z,10.43
2022-12-08T11:33:20.183Z,10.20
2022-12-08T11:36:03.818Z,12.40
2022-12-08T11:38:33.818Z,11.67
2022-12-08T11:41:29.827Z,12.13
2022-12-08T11:44:28.552Z,12.10
2022-12-08T11:47:02.559Z,13.67
2022-12-08T11:49:37.550Z,9.60
2022-12-08T11:52:14.730Z,11.13
2022-12-08T11:55:05.586Z,6.80
2022-12-08T11:57:33.710Z,5.43
2022-12-08T12:02:46.181Z,4.07
2022-12-08T12:06:05.337Z,7.67
2022-12-08T12:08:59.264Z,7.03
2022-12-08T12:12:17.133Z,5.77
2022-12-08T12:14:50.967Z,5.80
2022-12-08T12:17:32.065Z,4.50
2022-12-08T12:20:05.330Z,4.80
2022-12-08T12:22:35.939Z,7.97
2022-12-08T12:25:04.913Z,4.70
2022-12-08T12:27:40.932Z,6.07
2022-12-08T12:30:19.611Z,5.53
2022-12-08T12:33:12.177Z,4.87
2022-12-08T12:35:48.242Z,5.30
2022-12-08T12:38:49.629Z,4.00
2022-12-08T12:41:28.034Z,3.10
2022-12-08T12:44:14.314Z,4.27
2022-12-08T12:46:55.174Z,4.30
2022-12-08T12:49:43.724Z,5.33
2022-12-08T12:52:18.811Z,6.23
2022-12-08T12:54:50.435Z,5.90
2022-12-08T12:57:24.309Z,4.73
2022-12-08T12:59:55.788Z,4.37
2022-12-08T13:02:49.257Z,4.57
2022-12-08T13:05:33.332Z,3.77
2022-12-08T13:08:14.854Z,5.03
2022-12-08T13:11:07.154Z,3.77
2022-12-08T13:13:35.517Z,4.10
2022-12-08T13:16:19.763Z,5.17
2022-12-08T13:18:53.304Z,4.10
2022-12-08T13:21:23.811Z,3.43
2022-12-08T13:24:13.683Z,5.43
2022-12-08T13:26:50.036Z,4.67
2022-12-08T13:29:22.638Z,3.07
2022-12-08T13:31:57.714Z,4.57
2022-12-08T13:34:46.220Z,5.10
2022-12-08T13:37:48.113Z,4.13
2022-12-08T13:40:24.819Z,3.13
2022-12-08T13:43:38.735Z,5.40
2022-12-08T13:57:35.028Z,6.23
2022-12-08T14:00:17.636Z,3.63
2022-12-08T14:02:48.654Z,5.80
2022-12-08T14:05:21.678Z,3.60
2022-12-08T14:07:56.979Z,6.28
2022-12-08T14:10:32.342Z,5.17
2022-12-08T14:13:04.086Z,7.37
2022-12-08T14:15:38.437Z,8.00
2022-12-08T14:18:21.232Z,3.83
2022-12-08T14:21:22.602Z,3.90
2022-12-08T14:23:50.774Z,4.00
2022-12-08T14:28:46.159Z,7.53
2022-12-08T14:31:14.834Z,6.20
2022-12-08T14:33:43.398Z,5.33
2022-12-08T14:36:14.671Z,5.70
2022-12-08T14:38:42.335Z,5.60
2022-12-08T14:41:12.351Z,3.78
2022-12-08T14:43:44.188Z,8.23
2022-12-08T14:46:23.315Z,7.30
2022-12-08T14:48:51.268Z,7.47
2022-12-08T14:51:30.388Z,5.55
2022-12-08T14:54:09.058Z,7.30
2022-12-08T14:56:37.285Z,7.17
2022-12-08T14:59:19.935Z,4.88
2022-12-08T15:01:49.895Z,7.33
2022-12-08T15:04:25.993Z,8.00
2022-12-08T15:07:05.113Z,9.97
2022-12-08T15:09:36.590Z,8.83
2022-12-08T15:12:26.435Z,10.40
2022-12-08T15:14:59.960Z,9.50
2022-12-08T15:17:44.603Z,10.53
2022-12-08T15:20:50.358Z,10.47
2022-12-08T15:23:50.648Z,9.97
2022-12-08T15:26:25.659Z,10.60
2022-12-08T15:28:54.678Z,10.53
2022-12-08T15:31:22.928Z,10.43
2022-12-08T15:33:50.778Z,11.50
2022-12-08T15:36:18.727Z,11.57
2022-12-08T15:38:46.454Z,11.60
2022-12-08T15:41:15.390Z,11.13
2022-12-08T15:43:44.377Z,11.50
2022-12-08T15:46:12.375Z,8.80
2022-12-08T15:51:07.974Z,10.60
2022-12-08T15:53:35.809Z,9.23
2022-12-08T15:58:57.277Z,9.63
2022-12-08T16:01:25.978Z,9.53
2022-12-08T16:09:51.307Z,9.63
2022-12-08T16:18:27.407Z,13.87
2022-12-08T16:23:45.193Z,13.13
2022-12-08T16:27:13.914Z,11.57
2022-12-08T16:29:21.315Z,11.17
2022-12-08T16:31:50.593Z,13.97
2022-12-08T16:34:18.415Z,13.00
2022-12-08T16:36:46.359Z,11.65
2022-12-08T16:39:15.261Z,17.73
2022-12-08T16:42:01.785Z,16.52
2022-12-08T16:44:29.701Z,14.30
2022-12-08T16:46:57.896Z,13.60
2022-12-08T16:51:53.040Z,15.43
2022-12-08T16:54:20.688Z,17.30
2022-12-08T16:56:48.517Z,18.77
2022-12-08T17:01:43.974Z,15.18
2022-12-08T17:12:01.857Z,20.27
2022-12-08T17:14:34.538Z,20.37
2022-12-08T17:17:02.493Z,20.33
2022-12-08T17:21:58.797Z,16.02
2022-12-08T17:24:29.244Z,18.47
2022-12-08T17:26:58.538Z,19.30
2022-12-08T17:29:26.470Z,19.07
2022-12-08T17:31:54.195Z,19.52
2022-12-08T17:34:21.877Z,19.33
2022-12-08T17:36:49.793Z,18.98
2022-12-08T17:39:18.948Z,19.25
2022-12-08T17:41:47.960Z,19.73
2022-12-08T17:44:18.963Z,21.33
2022-12-08T17:46:52.626Z,25.57
2022-12-08T17:49:23.814Z,25.50
2022-12-08T17:51:54.420Z,24.43
2022-12-08T17:54:22.748Z,23.53
2022-12-08T17:56:50.555Z,24.87
2022-12-08T17:59:18.884Z,27.48
2022-12-08T18:01:46.775Z,27.57
2022-12-08T18:06:42.117Z,27.25
2022-12-08T18:09:10.242Z,28.65
2022-12-08T18:11:37.957Z,30.37
2022-12-08T18:14:10.333Z,31.85
2022-12-08T18:16:40.781Z,35.13
2022-12-08T18:19:09.248Z,38.23
2022-12-08T18:21:37.736Z,35.20
2022-12-08T18:24:05.954Z,31.37
2022-12-08T18:26:33.735Z,30.70
2022-12-08T18:29:01.846Z,26.58
2022-12-08T18:33:57.637Z,31.73
2022-12-08T18:39:21.842Z,31.87
2022-12-08T18:41:50.122Z,33.87
2022-12-08T18:44:17.926Z,31.83
2022-12-08T18:51:44.859Z,37.10
2022-12-08T18:54:14.270Z,37.70
2022-12-08T18:56:44.422Z,35.83
2022-12-08T18:59:13.892Z,35.77
2022-12-08T19:01:42.000Z,37.40
2022-12-08T19:07:00.483Z,36.13
2022-12-08T19:09:29.540Z,34.87
2022-12-08T19:11:58.718Z,32.57
2022-12-08T19:14:28.480Z,33.27
2022-12-08T19:16:59.720Z,37.50
2022-12-08T19:19:37.021Z,39.97
2022-12-08T19:22:05.251Z,34.83
2022-12-08T19:27:06.702Z,36.03
2022-12-08T19:29:35.661Z,37.57
2022-12-08T19:32:05.293Z,35.20
2022-12-08T19:34:35.476Z,37.10
2022-12-08T19:37:03.518Z,35.30
2022-12-08T19:39:51.765Z,33.30
2022-12-08T19:42:40.317Z,29.90
2022-12-08T19:45:14.243Z,29.47
2022-12-08T19:47:45.229Z,28.53
2022-12-08T19:50:33.790Z,26.83
2022-12-08T19:53:05.401Z,28.53
2022-12-08T19:55:33.486Z,25.50
2022-12-08T19:58:04.745Z,24.02
2022-12-08T20:00:34.001Z,23.83
2022-12-08T20:03:03.803Z,11.73
2022-12-08T20:05:35.212Z,30.00
2022-12-08T20:08:04.267Z,31.40
2022-12-08T20:13:26.856Z,29.93
2022-12-08T20:15:56.514Z,32.67
2022-12-08T20:18:25.562Z,33.03
2022-12-08T20:20:54.248Z,31.57
2022-12-08T20:25:50.299Z,34.15
2022-12-08T20:28:20.372Z,35.50
2022-12-08T20:30:50.662Z,31.67
2022-12-08T20:33:21.106Z,31.80
2022-12-08T20:36:01.893Z,30.27
2022-12-08T20:38:31.033Z,30.20
2022-12-08T20:40:59.695Z,28.87
2022-12-08T20:43:28.424Z,27.33
2022-12-08T20:45:58.106Z,26.53
2022-12-08T20:48:26.721Z,28.23
2022-12-08T20:50:55.114Z,24.60
2022-12-08T20:53:24.538Z,22.10
2022-12-08T20:55:52.762Z,22.93
2022-12-08T21:00:50.214Z,25.95
2022-12-08T21:03:18.836Z,25.80
2022-12-08T21:05:54.211Z,25.50
2022-12-08T21:08:25.915Z,25.33
2022-12-08T21:10:56.745Z,24.00
2022-12-08T21:13:26.725Z,22.90
2022-12-08T21:15:55.967Z,23.47
2022-12-08T21:18:25.121Z,20.77
2022-12-08T21:21:03.581Z,21.33
2022-12-08T21:23:31.939Z,20.73
2022-12-08T21:25:59.724Z,19.83
2022-12-08T21:28:27.994Z,18.83
2022-12-08T21:30:58.298Z,16.77
2022-12-08T21:33:29.238Z,19.47
2022-12-08T21:39:03.713Z,13.00
2022-12-08T21:41:52.247Z,17.13
2022-12-08T21:44:27.149Z,17.00
2022-12-08T21:47:07.239Z,17.40
2022-12-08T21:49:36.262Z,11.07
2022-12-08T21:52:05.963Z,6.37
2022-12-08T21:54:33.768Z,7.97
2022-12-08T21:57:01.758Z,9.88
2022-12-08T22:02:00.104Z,8.83
2022-12-08T22:04:30.654Z,9.87
2022-12-08T22:06:58.440Z,15.93
2022-12-08T22:09:26.188Z,15.52
2022-12-08T22:11:53.984Z,14.60
2022-12-08T22:14:21.794Z,10.48
2022-12-08T22:16:50.208Z,13.45
2022-12-08T22:19:18.080Z,15.20
2022-12-08T22:21:47.031Z,8.07
2022-12-08T22:24:16.504Z,6.23
2022-12-08T22:29:29.664Z,9.80
2022-12-08T22:31:57.634Z,7.50
2022-12-08T22:34:25.846Z,9.07
2022-12-08T22:36:54.882Z,10.55
2022-12-08T22:39:24.151Z,13.03
2022-12-08T22:41:53.148Z,11.90
2022-12-08T22:44:23.121Z,13.20
2022-12-08T22:50:03.186Z,14.20
2022-12-08T22:52:32.304Z,14.40
2022-12-08T22:55:02.880Z,11.47
2022-12-08T22:57:34.637Z,13.90
2022-12-08T23:00:03.636Z,15.30
2022-12-08T23:02:33.500Z,13.10
2022-12-08T23:05:01.630Z,12.40
2022-12-08T23:07:30.675Z,11.87
2022-12-08T23:09:58.452Z,10.83
2022-12-08T23:12:26.815Z,11.45
2022-12-08T23:14:54.591Z,11.90
2022-12-08T23:17:24.747Z,11.38
2022-12-08T23:19:52.345Z,9.83
2022-12-08T23:22:20.178Z,12.48
2022-12-08T23:24:47.779Z,13.50
2022-12-08T23:27:15.782Z,14.05
2022-12-08T23:29:43.525Z,12.07
2022-12-08T23:32:11.717Z,12.80
2022-12-08T23:34:39.655Z,13.53
2022-12-08T23:37:07.421Z,12.88
2022-12-08T23:39:35.369Z,9.60
2022-12-08T23:42:03.186Z,12.02
2022-12-08T23:44:31.523Z,10.18
2022-12-08T23:46:59.547Z,9.93
2022-12-08T23:51:54.888Z,7.68
2022-12-08T23:54:22.459Z,10.55
2022-12-08T23:56:50.596Z,14.57
2022-12-08T23:59:18.374Z,11.77
